Inverrary, Florida
Current Conditions -  °F | °C
As of 8:53 PM on Wednesday 22 Oct 2014 (Local Time) from KFXE Reporting Station
Clear Clear  
Wind Chill: 78°   Ceiling: Unl
Heat Index: 80°   Visibility: 10mi
Dew Point: 72°   Wind: 0mph
Humidity: 81%   Direction: NA
Pressure: 29.95"   Gusts: NA
Location:  26.1819°N, 80.2274°W
Report Text: KFXE 230053Z 00000KT 10SM CLR 26/22 A2995 RMK AO2 SLP143 T02560222
Loading
Personal Weather Stations






























Interactive Weather Map
Tropical Storm Tracking
New forecast layout! Learn more

10-Day Weather Forecast

Advertisements
Track Severe Weather on mobile